Time;durP1;ratioP1;P1;durP2;ratioP2;P2;SDS_P1;SDS_P2;PMS_P1;PMS_P2;Temp;Humidity;BMP_temperature;BMP_pressure;BME280_temperature;BME280_humidity;BME280_pressure;Samples;Min_cycle;Max_cycle;Signal;HPM_P1;HPM_P2
2023/01/07 00:02:14;;;;;;;3.92;1.35;;;;;;;19.37;48.74;101550.66;4999894;28;21078;-71
2023/01/07 00:04:39;;;;;;;3.67;1.37;;;;;;;19.38;48.82;101551.53;4988557;28;20029;-70
2023/01/07 00:07:04;;;;;;;4.35;1.20;;;;;;;19.30;49.16;101541.53;4997743;28;20271;-74
2023/01/07 00:09:29;;;;;;;3.50;1.40;;;;;;;19.35;49.08;101549.13;4993391;28;20058;-71
2023/01/07 00:11:55;;;;;;;3.03;1.10;;;;;;;19.31;48.81;101540.59;4991168;28;20036;-70
2023/01/07 00:14:20;;;;;;;3.15;1.30;;;;;;;19.29;48.61;101537.19;4999278;28;20270;-71
2023/01/07 00:16:45;;;;;;;2.97;1.30;;;;;;;19.32;48.82;101536.97;4992915;28;20027;-71
2023/01/07 00:19:13;;;;;;;3.00;1.50;;;;;;;19.31;48.78;101534.44;4994517;28;20284;-74
2023/01/07 00:21:39;;;;;;;2.80;1.40;;;;;;;19.29;48.62;101537.19;4993812;28;20346;-71
2023/01/07 00:24:05;;;;;;;2.90;1.42;;;;;;;19.27;48.50;101527.72;4997416;28;20038;-74
2023/01/07 00:26:34;;;;;;;3.10;1.30;;;;;;;19.24;48.64;101526.13;4997206;28;20604;-70
2023/01/07 00:28:59;;;;;;;3.25;1.52;;;;;;;19.24;48.54;101527.94;5001442;28;20115;-70
2023/01/07 00:31:28;;;;;;;3.17;1.40;;;;;;;19.26;48.62;101536.59;4988138;28;20042;-73
2023/01/07 00:36:23;;;;;;;3.00;1.38;;;;;;;19.22;48.57;101517.50;4986532;28;20034;-68
2023/01/07 00:39:11;;;;;;;4.63;1.58;;;;;;;19.22;48.63;101517.50;4990100;28;20072;-72
2023/01/07 00:41:36;;;;;;;3.40;1.60;;;;;;;19.23;48.43;101518.31;4988056;28;20038;-73
2023/01/07 00:44:03;;;;;;;3.63;1.30;;;;;;;19.23;48.57;101523.59;4993071;28;20049;-72
2023/01/07 00:46:28;;;;;;;2.42;1.30;;;;;;;19.21;48.47;101513.97;4987378;28;20065;-72
2023/01/07 00:48:54;;;;;;;3.30;1.55;;;;;;;19.17;48.67;101514.34;4984014;28;20120;-76
2023/01/07 00:51:19;;;;;;;4.55;1.52;;;;;;;19.21;48.57;101513.97;4988982;28;20406;-72
2023/01/07 00:53:45;;;;;;;3.05;1.30;;;;;;;19.17;48.52;101501.97;4990852;28;20381;-72
2023/01/07 00:56:12;;;;;;;3.42;1.38;;;;;;;19.19;48.38;101512.44;4996170;28;20044;-72
2023/01/07 00:58:38;;;;;;;3.35;1.50;;;;;;;19.19;48.48;101501.88;4995016;28;20047;-72
2023/01/07 01:01:03;;;;;;;3.38;1.42;;;;;;;19.18;48.42;101505.44;4990732;28;20038;-72
2023/01/07 01:03:30;;;;;;;4.22;1.38;;;;;;;19.13;48.42;101492.59;4994029;28;20055;-70
2023/01/07 01:06:03;;;;;;;3.70;1.60;;;;;;;19.15;48.49;101489.81;4991189;28;20121;-73
2023/01/07 01:08:29;;;;;;;4.22;1.40;;;;;;;19.12;48.39;101484.78;4995606;28;20042;-71
2023/01/07 01:10:54;;;;;;;4.38;1.50;;;;;;;19.13;48.26;101478.53;4990979;28;20035;-72
2023/01/07 01:13:19;;;;;;;3.22;1.45;;;;;;;19.13;48.41;101475.91;4995419;28;20036;-73
2023/01/07 01:15:46;;;;;;;3.42;1.35;;;;;;;19.13;48.12;101479.38;4991967;28;20034;-70
2023/01/07 01:18:12;;;;;;;3.30;1.60;;;;;;;19.09;48.46;101477.94;4992564;28;20105;-70
2023/01/07 01:20:39;;;;;;;3.15;1.40;;;;;;;19.10;48.33;101465.56;4989339;28;20086;-70
2023/01/07 01:23:05;;;;;;;2.63;1.45;;;;;;;19.13;48.57;101470.63;4992349;28;20081;-72
2023/01/07 01:25:30;;;;;;;3.00;1.42;;;;;;;19.08;48.35;101462.19;4996191;28;20037;-72
2023/01/07 01:27:55;;;;;;;3.50;1.58;;;;;;;19.11;48.36;101470.72;4995187;28;20234;-72
2023/01/07 01:30:21;;;;;;;3.17;1.38;;;;;;;19.08;48.47;101462.19;4993471;28;20092;-72
2023/01/07 01:32:46;;;;;;;4.00;1.60;;;;;;;19.10;48.31;101462.91;4999210;28;20034;-75
2023/01/07 01:35:11;;;;;;;3.53;1.55;;;;;;;19.06;48.32;101453.53;5001189;28;20109;-71
2023/01/07 01:37:37;;;;;;;2.97;1.30;;;;;;;19.08;48.27;101459.56;5003582;28;20064;-70
2023/01/07 01:40:04;;;;;;;4.47;1.52;;;;;;;19.08;48.34;101463.03;4995839;28;20683;-71
2023/01/07 01:42:30;;;;;;;3.42;1.60;;;;;;;19.07;48.31;101463.97;4995738;28;20029;-71
2023/01/07 01:44:58;;;;;;;3.67;1.50;;;;;;;19.04;48.07;101456.28;4996145;28;20441;-72
2023/01/07 01:47:39;;;;;;;2.85;1.27;;;;;;;19.02;48.29;101455.56;4994844;28;20040;-72
2023/01/07 01:50:28;;;;;;;3.45;1.50;;;;;;;19.06;48.41;101466.75;4997099;28;20091;-74
2023/01/07 01:52:56;;;;;;;3.10;1.27;;;;;;;19.06;48.25;101461.44;4994087;28;20030;-73
2023/01/07 01:55:31;;;;;;;3.40;1.30;;;;;;;18.99;48.27;101455.78;4997514;28;20115;-72
2023/01/07 01:58:01;;;;;;;3.95;1.60;;;;;;;19.03;48.20;101465.19;4995426;28;20107;-71
2023/01/07 02:00:27;;;;;;;3.65;1.58;;;;;;;19.01;48.21;101460.03;4995580;28;20042;-71
2023/01/07 02:02:57;;;;;;;3.28;1.40;;;;;;;18.98;47.85;101462.06;4995147;28;20065;-73
2023/01/07 02:05:33;;;;;;;3.40;1.50;;;;;;;18.99;48.37;101453.16;4988032;28;20045;-73
2023/01/07 02:07:58;;;;;;;3.85;1.40;;;;;;;18.95;48.16;101452.56;4996713;28;20033;-71
2023/01/07 02:10:24;;;;;;;3.38;1.40;;;;;;;18.95;48.29;101455.19;4999206;28;20034;-70
2023/01/07 02:13:07;;;;;;;3.80;1.45;;;;;;;18.97;48.08;101461.19;4992640;28;20121;-71
2023/01/07 02:15:50;;;;;;;4.60;1.70;;;;;;;18.98;48.16;101454.97;4994463;28;20080;-73
2023/01/07 02:18:26;;;;;;;3.20;1.30;;;;;;;18.97;48.14;101455.09;4994957;28;20085;-72
2023/01/07 02:21:30;;;;;;;3.42;1.52;;;;;;;18.98;48.02;101454.97;4990364;28;20145;-74
2023/01/07 02:24:13;;;;;;;2.55;1.40;;;;;;;18.97;48.01;101457.72;4986218;28;20049;-73
2023/01/07 02:26:56;;;;;;;2.83;1.30;;;;;;;18.96;48.03;101456.88;4993359;28;20833;-73
2023/01/07 02:29:40;;;;;;;2.23;1.20;;;;;;;18.93;48.00;101445.69;5001633;28;20029;-72
2023/01/07 02:32:05;;;;;;;2.80;1.23;;;;;;;18.96;47.99;101450.75;4986611;28;20033;-72
2023/01/07 02:34:55;;;;;;;2.63;1.30;;;;;;;18.91;47.96;101448.44;4990079;28;20297;-70
2023/01/07 02:37:40;;;;;;;2.58;1.20;;;;;;;18.91;48.11;101455.53;4986242;28;20662;-72
2023/01/07 02:40:17;;;;;;;3.05;1.50;;;;;;;18.92;47.94;101449.31;4989851;28;20031;-74
2023/01/07 02:42:51;;;;;;;3.10;1.30;;;;;;;18.91;47.95;101450.25;4999325;28;20117;-71
2023/01/07 02:45:26;;;;;;;2.83;1.30;;;;;;;18.91;47.94;101447.63;4993549;28;20085;-72
2023/01/07 02:47:57;;;;;;;3.63;1.33;;;;;;;18.90;48.02;101445.91;4990516;28;20543;-71
2023/01/07 02:50:22;;;;;;;3.03;1.30;;;;;;;18.90;47.90;101441.50;4988301;28;20038;-70
2023/01/07 02:52:47;;;;;;;3.47;1.40;;;;;;;18.86;48.04;101434.75;4992514;28;20038;-74
2023/01/07 02:55:20;;;;;;;2.15;1.10;;;;;;;18.87;48.25;101440.88;4986895;28;20970;-71
2023/01/07 02:58:13;;;;;;;3.15;1.30;;;;;;;18.86;47.94;101429.47;4996566;28;20492;-71
2023/01/07 03:00:44;;;;;;;3.00;1.40;;;;;;;18.88;47.93;101442.56;5002723;28;20160;-71
2023/01/07 03:03:19;;;;;;;2.50;1.17;;;;;;;18.88;47.99;101439.91;4989284;28;20176;-70
2023/01/07 03:06:09;;;;;;;3.10;1.23;;;;;;;18.85;47.90;101441.00;4998977;28;20029;-70
2023/01/07 03:08:59;;;;;;;2.22;1.10;;;;;;;18.86;47.98;101434.75;4995101;28;20041;-74
2023/01/07 03:11:29;;;;;;;2.55;1.15;;;;;;;18.85;48.04;101425.16;5001873;28;20033;-74
2023/01/07 03:14:19;;;;;;;4.05;1.65;;;;;;;18.85;47.97;101426.00;5002533;28;20044;-70
2023/01/07 03:16:52;;;;;;;2.10;1.10;;;;;;;18.83;47.93;101419.97;4986205;28;20108;-74
2023/01/07 03:19:24;;;;;;;3.65;1.48;;;;;;;18.81;48.09;101406.00;4999437;28;20045;-71
2023/01/07 03:21:51;;;;;;;2.42;1.23;;;;;;;18.82;47.95;101402.44;4990603;28;20041;-70
2023/01/07 03:24:17;;;;;;;3.17;1.20;;;;;;;18.80;48.05;101395.56;4994787;28;20061;-72
2023/01/07 03:26:47;;;;;;;2.25;1.10;;;;;;;18.82;47.88;101398.97;4987117;28;20039;-71
2023/01/07 03:29:15;;;;;;;2.47;1.20;;;;;;;18.79;47.88;101394.72;4999043;28;20069;-75
2023/01/07 03:31:55;;;;;;;3.60;1.23;;;;;;;18.79;48.01;101385.97;4997491;28;20034;-71
2023/01/07 03:34:24;;;;;;;3.53;1.27;;;;;;;18.80;47.95;101390.28;4992009;28;20095;-72
2023/01/07 03:36:54;;;;;;;3.17;1.30;;;;;;;18.80;48.00;101391.16;4986150;28;20054;-71
2023/01/07 03:39:23;;;;;;;2.90;1.25;;;;;;;18.78;48.21;101390.41;4990285;28;20041;-74
2023/01/07 03:44:34;;;;;;;2.97;1.30;;;;;;;18.80;48.01;101387.66;4988878;28;20045;-71
2023/01/07 03:46:59;;;;;;;3.17;1.27;;;;;;;18.77;47.90;101394.03;4985001;28;20034;-74
2023/01/07 03:49:24;;;;;;;4.85;1.23;;;;;;;18.75;47.88;101369.50;4995862;28;20548;-72
2023/01/07 03:51:51;;;;;;;2.85;1.13;;;;;;;18.79;47.83;101378.88;4987645;28;20045;-72
2023/01/07 03:54:16;;;;;;;3.75;1.13;;;;;;;18.77;47.91;101374.66;5001958;28;20066;-72
2023/01/07 03:56:42;;;;;;;3.03;1.40;;;;;;;18.72;47.94;101364.47;4996512;28;20069;-71
2023/01/07 03:59:07;;;;;;;2.65;1.30;;;;;;;18.77;47.90;101370.25;5000168;28;20031;-73
2023/01/07 04:01:32;;;;;;;2.72;1.20;;;;;;;18.76;47.89;101365.91;4996142;28;20092;-70
2023/01/07 04:03:58;;;;;;;2.85;1.10;;;;;;;18.76;48.00;101371.19;4999508;28;20613;-73
2023/01/07 04:06:23;;;;;;;3.50;1.10;;;;;;;18.75;48.00;101364.22;5001465;28;20034;-72
2023/01/07 04:08:48;;;;;;;3.55;1.30;;;;;;;18.75;47.85;101361.59;4996034;28;20034;-71
2023/01/07 04:11:13;;;;;;;2.70;1.20;;;;;;;18.71;47.97;101346.94;4991693;28;20049;-70
2023/01/07 04:13:39;;;;;;;2.30;1.10;;;;;;;18.76;47.90;101351.88;4988934;28;20487;-72
2023/01/07 04:16:04;;;;;;;2.20;1.05;;;;;;;18.74;47.93;101346.72;4993282;28;20030;-71
2023/01/07 04:18:29;;;;;;;2.25;1.15;;;;;;;18.74;48.25;101344.06;4997664;28;20044;-73
2023/01/07 04:20:55;;;;;;;4.20;1.17;;;;;;;18.76;47.87;101347.44;4997275;28;20371;-70
2023/01/07 04:23:20;;;;;;;2.25;1.20;;;;;;;18.73;48.05;101339.75;4988976;28;20605;-70
2023/01/07 04:25:46;;;;;;;2.88;1.20;;;;;;;18.73;47.93;101331.81;4986824;28;20044;-72
2023/01/07 04:28:11;;;;;;;2.72;1.00;;;;;;;18.75;48.01;101332.53;5001505;28;20441;-69
2023/01/07 04:30:37;;;;;;;1.88;0.98;;;;;;;18.75;48.10;101326.44;4999299;28;20073;-72
2023/01/07 04:33:03;;;;;;;2.85;1.10;;;;;;;18.72;47.96;101316.94;4992387;28;20116;-71
2023/01/07 04:35:29;;;;;;;3.38;1.20;;;;;;;18.72;47.97;101310.81;5000791;28;20084;-73
2023/01/07 04:37:54;;;;;;;2.95;1.30;;;;;;;18.72;48.09;101306.38;4997581;28;20525;-72
2023/01/07 04:40:19;;;;;;;3.50;1.15;;;;;;;18.74;47.81;101315.03;4987542;28;20045;-74
2023/01/07 04:42:44;;;;;;;2.35;1.20;;;;;;;18.70;47.83;101307.47;4995756;28;20038;-71
2023/01/07 04:45:10;;;;;;;2.17;1.00;;;;;;;18.74;47.83;101306.25;4985499;28;20644;-71
2023/01/07 04:47:35;;;;;;;2.80;1.13;;;;;;;18.71;47.92;101296.78;4986628;28;20045;-72
2023/01/07 04:50:00;;;;;;;2.38;1.10;;;;;;;18.73;47.65;101296.66;4990561;28;20446;-71
2023/01/07 04:52:26;;;;;;;2.67;1.02;;;;;;;18.71;47.86;101296.78;4996493;28;20033;-73
2023/01/07 04:54:51;;;;;;;3.17;1.10;;;;;;;18.72;47.66;101292.34;4992478;28;20030;-71
2023/01/07 04:57:17;;;;;;;2.97;1.10;;;;;;;18.72;47.75;101293.16;4990645;28;20589;-72
2023/01/07 04:59:42;;;;;;;2.38;1.20;;;;;;;18.71;47.81;101294.16;4988607;28;20279;-72
2023/01/07 05:02:07;;;;;;;2.55;1.30;;;;;;;18.70;47.67;101291.63;4987402;28;20402;-70
2023/01/07 05:04:33;;;;;;;2.13;1.00;;;;;;;18.65;47.70;101287.53;4992746;28;20042;-69
2023/01/07 05:06:58;;;;;;;3.08;1.38;;;;;;;18.66;47.45;101288.38;4993764;28;20216;-70
2023/01/07 05:09:23;;;;;;;3.20;1.10;;;;;;;18.70;47.55;101288.97;4990465;28;20042;-72
2023/01/07 05:11:49;;;;;;;3.20;1.35;;;;;;;18.68;47.92;101282.00;4994187;28;20038;-75
2023/01/07 05:14:14;;;;;;;2.90;1.17;;;;;;;18.66;47.71;101280.47;4992650;28;20398;-72
2023/01/07 05:16:39;;;;;;;2.92;1.13;;;;;;;18.64;47.77;101280.59;4993242;28;20038;-70
2023/01/07 05:19:04;;;;;;;2.45;1.10;;;;;;;18.65;47.69;101281.41;4992831;28;20034;-71
2023/01/07 05:21:30;;;;;;;2.03;1.30;;;;;;;18.67;47.69;101277.72;4993818;28;20886;-71
2023/01/07 05:23:55;;;;;;;2.15;1.02;;;;;;;18.64;47.77;101271.81;4995812;28;20038;-72
2023/01/07 05:26:20;;;;;;;2.57;1.10;;;;;;;18.63;47.76;101270.97;4989169;28;20621;-71
2023/01/07 05:28:46;;;;;;;1.80;0.93;;;;;;;18.66;47.78;101275.19;4989337;28;20263;-74
2023/01/07 05:31:11;;;;;;;2.75;1.25;;;;;;;18.63;47.71;101268.34;4994033;28;20962;-71
2023/01/07 05:33:36;;;;;;;2.92;1.50;;;;;;;18.63;47.65;101267.50;4995298;28;20034;-71
2023/01/07 05:36:01;;;;;;;2.63;1.10;;;;;;;18.61;47.74;101272.91;4994174;28;20034;-74
2023/01/07 05:38:27;;;;;;;2.28;1.00;;;;;;;18.62;47.81;101266.63;4990986;28;20050;-69
2023/01/07 05:40:52;;;;;;;4.13;1.20;;;;;;;18.62;47.25;101271.91;4994413;28;20144;-71
2023/01/07 05:43:17;;;;;;;3.20;1.13;;;;;;;18.61;47.51;101270.25;4990853;28;20149;-74
2023/01/07 05:45:44;;;;;;;3.72;1.30;;;;;;;18.62;47.72;101271.91;4990098;28;20502;-70
2023/01/07 05:48:09;;;;;;;2.03;1.00;;;;;;;18.63;47.45;101263.06;4991481;28;20395;-74
2023/01/07 05:50:35;;;;;;;2.58;1.10;;;;;;;18.62;47.38;101269.28;4992673;28;20040;-74
2023/01/07 05:53:00;;;;;;;1.70;0.90;;;;;;;18.62;47.53;101263.16;4992568;28;20034;-72
2023/01/07 05:55:26;;;;;;;2.33;1.00;;;;;;;18.61;47.26;101264.13;4989932;28;20267;-73
2023/01/07 05:57:51;;;;;;;2.92;1.00;;;;;;;18.58;47.39;101254.66;4992510;28;20030;-73
2023/01/07 06:00:17;;;;;;;2.78;1.10;;;;;;;18.59;47.56;101255.47;4991980;28;20045;-74
2023/01/07 06:02:42;;;;;;;1.70;0.95;;;;;;;18.59;47.34;101248.38;4989325;28;20042;-71
2023/01/07 06:05:08;;;;;;;2.53;1.10;;;;;;;18.61;47.18;101254.41;4992855;28;20459;-71
2023/01/07 06:07:34;;;;;;;3.03;0.88;;;;;;;18.60;47.42;101255.38;4991266;28;20061;-71
2023/01/07 06:09:59;;;;;;;2.88;1.02;;;;;;;18.57;47.36;101244.22;4992360;28;20061;-73
2023/01/07 06:12:25;;;;;;;2.45;1.08;;;;;;;18.60;47.00;101249.25;4993140;28;20640;-72
2023/01/07 06:14:50;;;;;;;2.65;1.00;;;;;;;18.60;47.46;101251.91;4993497;28;20493;-71
2023/01/07 06:17:15;;;;;;;3.95;1.17;;;;;;;18.58;47.48;101236.16;4990127;28;20141;-70
2023/01/07 06:19:41;;;;;;;3.47;0.98;;;;;;;18.58;47.46;101236.16;4991542;28;20026;-71
2023/01/07 06:22:06;;;;;;;2.55;1.10;;;;;;;18.62;47.68;101231.50;4995896;28;20550;-70
2023/01/07 06:24:31;;;;;;;1.67;0.82;;;;;;;18.61;47.76;101229.78;4992131;28;20035;-71
2023/01/07 06:26:57;;;;;;;1.90;0.90;;;;;;;18.66;47.66;101227.66;4991248;28;20135;-70
2023/01/07 06:29:22;;;;;;;2.88;0.93;;;;;;;18.68;47.72;101225.75;4995164;28;20034;-71
2023/01/07 06:31:47;;;;;;;2.63;1.75;;;;;;;18.66;47.85;101211.81;4989823;28;20073;-70
2023/01/07 06:34:12;;;;;;;2.30;0.82;;;;;;;18.68;47.78;101216.00;4999589;28;20116;-70
2023/01/07 06:36:38;;;;;;;1.88;0.80;;;;;;;18.73;47.73;101215.66;4990170;28;20745;-73
2023/01/07 06:39:03;;;;;;;2.65;1.10;;;;;;;18.75;48.06;101208.44;4997103;28;20740;-70
2023/01/07 06:41:29;;;;;;;1.55;0.88;;;;;;;18.74;47.71;101204.16;4998304;28;20044;-73
2023/01/07 06:43:54;;;;;;;2.25;1.02;;;;;;;18.78;47.60;101212.66;4987916;28;20029;-70
2023/01/07 06:46:19;;;;;;;1.80;0.80;;;;;;;18.79;47.58;101206.44;4992922;28;20407;-72
2023/01/07 06:48:45;;;;;;;1.77;0.90;;;;;;;18.82;47.52;101208.84;4995123;28;20474;-71
2023/01/07 06:51:10;;;;;;;2.20;0.90;;;;;;;18.83;47.45;101203.44;4994733;28;20096;-72
2023/01/07 06:53:35;;;;;;;1.98;0.90;;;;;;;18.90;47.50;101208.22;5001261;28;20105;-72
2023/01/07 06:56:00;;;;;;;2.72;0.82;;;;;;;18.92;47.62;101211.63;4995092;28;20100;-73
2023/01/07 06:58:26;;;;;;;1.67;0.73;;;;;;;18.90;47.60;101202.94;4988637;28;20475;-72
2023/01/07 07:00:51;;;;;;;2.47;1.00;;;;;;;18.93;47.32;101208.84;4994390;28;20268;-74
2023/01/07 07:03:16;;;;;;;2.25;1.00;;;;;;;18.95;47.54;101199.00;4993661;28;20046;-74
2023/01/07 07:05:42;;;;;;;1.67;0.63;;;;;;;18.95;47.47;101193.72;4998161;28;20029;-70
2023/01/07 07:08:07;;;;;;;1.70;0.70;;;;;;;18.99;47.46;101194.31;5002594;28;20459;-72
2023/01/07 07:10:32;;;;;;;1.95;0.80;;;;;;;18.96;47.16;101189.25;5002477;28;20482;-71
2023/01/07 07:12:58;;;;;;;2.80;0.90;;;;;;;18.98;47.28;101190.00;4985567;28;20034;-71
2023/01/07 07:15:23;;;;;;;1.50;0.80;;;;;;;18.99;47.27;101186.38;4986423;28;20459;-72
2023/01/07 07:17:48;;;;;;;1.45;0.80;;;;;;;18.95;47.40;101174.41;4988634;28;20044;-70
2023/01/07 07:20:14;;;;;;;1.10;0.70;;;;;;;18.98;47.51;101174.16;5003407;28;20057;-71
2023/01/07 07:22:45;;;;;;;2.13;0.75;;;;;;;18.96;47.19;101168.13;4994303;28;20045;-70
2023/01/07 07:25:11;;;;;;;2.45;1.10;;;;;;;18.98;47.24;101176.78;4999848;28;20046;-71
2023/01/07 07:27:36;;;;;;;1.95;0.82;;;;;;;19.00;47.09;101177.50;4998942;28;20478;-70
2023/01/07 07:30:02;;;;;;;0.88;0.60;;;;;;;18.97;47.25;101170.66;5002496;28;20125;-74
2023/01/07 07:32:28;;;;;;;1.10;0.65;;;;;;;18.97;47.24;101168.00;4996271;28;20056;-73
2023/01/07 07:34:54;;;;;;;1.10;0.65;;;;;;;18.98;47.24;101174.16;4994697;28;20045;-70
2023/01/07 07:37:19;;;;;;;1.77;0.70;;;;;;;19.00;47.26;101172.22;4995119;28;20117;-71
2023/01/07 07:39:45;;;;;;;1.42;0.70;;;;;;;18.99;47.15;101167.88;4974049;28;20044;-72
2023/01/07 07:42:10;;;;;;;1.63;0.80;;;;;;;18.99;47.08;101167.88;4995373;28;20038;-74
2023/01/07 07:44:35;;;;;;;0.75;0.60;;;;;;;19.01;47.13;101161.53;4997776;28;20042;-74
2023/01/07 07:47:01;;;;;;;1.00;0.60;;;;;;;18.97;47.03;101151.34;4991666;28;20026;-72
2023/01/07 07:49:26;;;;;;;2.03;0.80;;;;;;;18.97;46.97;101157.44;4985215;28;20096;-72
2023/01/07 07:51:51;;;;;;;1.75;0.70;;;;;;;18.96;47.09;101150.50;4994414;28;20133;-71
2023/01/07 07:54:17;;;;;;;1.42;0.70;;;;;;;19.00;47.29;101156.38;4992108;28;20029;-73
2023/01/07 07:56:42;;;;;;;2.03;0.70;;;;;;;19.01;47.04;101161.53;4989497;28;20026;-72
2023/01/07 07:59:07;;;;;;;1.70;0.70;;;;;;;18.99;47.14;101146.75;4986855;28;20073;-72
2023/01/07 08:01:33;;;;;;;0.95;0.68;;;;;;;18.96;47.15;101142.59;4998090;28;20107;-73
2023/01/07 08:03:58;;;;;;;2.53;0.73;;;;;;;19.02;47.29;101138.59;4996179;28;20073;-72
2023/01/07 08:06:23;;;;;;;1.55;0.80;;;;;;;18.99;47.35;101136.19;4994337;28;20117;-75
2023/01/07 08:08:48;;;;;;;1.77;0.90;;;;;;;19.02;47.46;101136.78;4999678;28;20516;-72
2023/01/07 08:11:14;;;;;;;2.92;1.00;;;;;;;18.99;47.57;101130.91;4997421;28;20030;-72
2023/01/07 08:13:39;;;;;;;1.77;0.80;;;;;;;19.03;47.63;101141.13;4996412;28;20878;-74
2023/01/07 08:16:05;;;;;;;1.40;0.70;;;;;;;19.04;47.61;101136.66;4994539;28;20039;-73
2023/01/07 08:18:30;;;;;;;2.00;0.82;;;;;;;18.92;47.75;101121.81;4988222;28;20033;-72
2023/01/07 08:20:55;;;;;;;1.88;0.88;;;;;;;19.01;47.69;101135.13;4990227;28;20030;-71
2023/01/07 08:23:21;;;;;;;1.83;0.80;;;;;;;19.04;47.81;101131.38;4993833;28;20038;-74
2023/01/07 08:25:46;;;;;;;4.80;0.93;;;;;;;19.05;47.82;101127.78;4985628;28;20046;-76
2023/01/07 08:28:11;;;;;;;2.08;1.00;;;;;;;19.06;47.80;101129.47;4994995;28;20038;-72
2023/01/07 08:30:37;;;;;;;1.83;0.80;;;;;;;19.07;48.07;101127.66;4987719;28;20438;-70
2023/01/07 08:33:05;;;;;;;1.88;0.80;;;;;;;19.05;48.12;101122.50;4993322;28;20038;-71
2023/01/07 08:35:30;;;;;;;3.42;0.88;;;;;;;19.06;48.17;101123.31;4988232;28;20814;-68
2023/01/07 08:38:04;;;;;;;2.42;0.80;;;;;;;19.07;48.28;101122.38;4988747;28;20052;-70
2023/01/07 08:40:29;;;;;;;3.00;0.80;;;;;;;19.08;48.05;101116.97;4990714;28;20113;-70
2023/01/07 08:42:59;;;;;;;2.28;0.75;;;;;;;19.04;48.06;101099.69;4988884;28;20129;-69
2023/01/07 08:45:25;;;;;;;2.95;0.88;;;;;;;19.09;48.10;101117.81;4987787;28;20038;-70
2023/01/07 08:47:50;;;;;;;1.05;0.70;;;;;;;19.04;47.78;101104.97;4992940;28;20091;-72
2023/01/07 08:50:15;;;;;;;1.48;0.80;;;;;;;19.07;48.06;101101.25;4997392;28;20034;-73
2023/01/07 08:52:44;;;;;;;1.40;0.80;;;;;;;19.05;48.06;101104.00;4993777;28;20088;-71
2023/01/07 08:55:09;;;;;;;1.05;0.63;;;;;;;19.06;47.96;101102.19;4987557;28;20100;-72
2023/01/07 08:57:35;;;;;;;1.88;0.77;;;;;;;19.05;47.92;101097.91;4998968;28;20201;-69
2023/01/07 09:00:00;;;;;;;3.23;0.80;;;;;;;19.07;47.73;101109.16;4989509;28;20030;-70
2023/01/07 09:02:25;;;;;;;1.30;0.70;;;;;;;19.05;47.83;101101.38;4998369;28;20270;-72
2023/01/07 09:04:50;;;;;;;2.30;0.90;;;;;;;19.05;48.04;101104.00;4994095;28;20093;-68
2023/01/07 09:07:16;;;;;;;1.88;0.80;;;;;;;19.08;47.96;101103.75;4991163;28;20278;-73
2023/01/07 09:09:41;;;;;;;1.50;0.70;;;;;;;19.08;47.86;101098.47;4991148;28;20373;-71
2023/01/07 09:12:07;;;;;;;1.58;0.80;;;;;;;19.08;47.97;101090.56;4993736;28;20108;-72
2023/01/07 09:14:33;;;;;;;2.00;0.77;;;;;;;19.04;47.89;101086.47;4994089;28;20030;-70
2023/01/07 09:16:58;;;;;;;1.85;0.70;;;;;;;19.03;47.99;101082.16;4991525;28;20038;-69
2023/01/07 09:19:23;;;;;;;2.65;0.80;;;;;;;19.06;48.07;101089.84;4988489;28;20113;-70
2023/01/07 09:21:50;;;;;;;2.53;0.77;;;;;;;19.02;47.77;101076.03;4984082;28;20069;-71
2023/01/07 09:24:15;;;;;;;2.15;0.63;;;;;;;19.06;47.84;101079.28;4994574;28;20037;-73
2023/01/07 09:26:42;;;;;;;1.83;0.90;;;;;;;19.06;48.05;101084.56;4993630;28;20037;-72
2023/01/07 09:29:08;;;;;;;1.95;0.70;;;;;;;19.06;48.08;101079.28;4989486;28;20057;-72
2023/01/07 09:31:33;;;;;;;2.22;0.80;;;;;;;19.03;47.87;101066.31;4990206;28;20977;-72
2023/01/07 09:33:58;;;;;;;2.67;0.85;;;;;;;19.11;47.84;101078.91;4993905;28;20153;-75
2023/01/07 09:36:24;;;;;;;2.03;0.82;;;;;;;19.13;47.43;101066.41;4994416;28;20102;-76
2023/01/07 09:38:49;;;;;;;2.75;0.90;;;;;;;19.11;47.50;101060.41;4994850;28;20029;-72
2023/01/07 09:41:20;;;;;;;2.67;0.80;;;;;;;19.14;47.61;101062.81;4993767;28;20038;-76
2023/01/07 09:43:52;;;;;;;3.08;0.70;;;;;;;19.15;47.32;101057.41;4988964;28;20045;-73
2023/01/07 09:46:22;;;;;;;3.78;0.75;;;;;;;19.14;47.12;101054.88;4988634;28;20041;-72
2023/01/07 09:48:56;;;;;;;2.50;0.82;;;;;;;19.17;47.39;101057.28;4994343;28;20137;-74
2023/01/07 09:51:35;;;;;;;5.38;0.88;;;;;;;19.15;46.93;101049.47;4992160;28;20745;-70
2023/01/07 09:54:02;;;;;;;3.40;0.70;;;;;;;19.16;47.11;101043.22;4991051;28;20414;-73
2023/01/07 09:56:35;;;;;;;3.60;0.90;;;;;;;19.20;47.16;101046.44;4991540;28;20833;-73
2023/01/07 09:59:03;;;;;;;3.30;0.90;;;;;;;19.21;47.25;101032.25;4990879;28;20034;-75
2023/01/07 10:01:58;;;;;;;3.08;1.00;;;;;;;19.24;47.22;101029.38;4989812;28;20141;-74
2023/01/07 10:04:35;;;;;;;2.80;0.70;;;;;;;19.22;47.51;101026.03;4993089;28;20037;-74
2023/01/07 10:07:24;;;;;;;2.13;0.70;;;;;;;19.23;47.30;101026.84;4991247;28;20052;-73
2023/01/07 10:09:56;;;;;;;1.75;0.75;;;;;;;19.24;47.14;101025.91;4991235;28;20061;-72
2023/01/07 10:12:40;;;;;;;2.63;0.80;;;;;;;19.24;46.93;101018.78;4989423;28;20140;-74
2023/01/07 10:15:14;;;;;;;2.78;0.80;;;;;;;19.24;47.42;101008.22;4989364;28;20418;-75
2023/01/07 10:17:46;;;;;;;;;;;;;;;19.34;46.67;101003.88;5003105;28;20034;-70
2023/01/07 10:20:19;;;;;;;4.05;0.80;;;;;;;19.31;46.86;100982.13;4990376;28;19916;-72
2023/01/07 10:22:53;;;;;;;1.92;0.80;;;;;;;19.29;46.93;100987.53;4987844;28;20061;-68
2023/01/07 10:25:27;;;;;;;2.97;1.13;;;;;;;19.29;47.14;100970.84;4983514;28;20129;-69
2023/01/07 10:27:56;;;;;;;2.10;0.90;;;;;;;19.26;47.03;100974.56;4989409;28;20095;-73
2023/01/07 10:30:25;;;;;;;4.22;0.90;;;;;;;19.29;47.11;100969.03;4995553;28;20046;-70
2023/01/07 10:33:01;;;;;;;2.45;0.75;;;;;;;19.31;46.81;100966.28;4997092;28;20034;-74
2023/01/07 10:35:29;;;;;;;4.18;1.05;;;;;;;19.27;47.06;100947.19;4994762;28;20033;-73
2023/01/07 10:37:58;;;;;;;2.30;0.80;;;;;;;19.25;47.05;100948.28;4998688;28;20073;-73
2023/01/07 10:40:35;;;;;;;2.10;0.80;;;;;;;19.26;46.91;100948.16;4997311;28;20022;-74
2023/01/07 10:43:13;;;;;;;1.20;0.60;;;;;;;19.28;47.11;100943.59;4993551;28;20046;-72
2023/01/07 10:46:00;;;;;;;2.63;0.77;;;;;;;19.31;46.99;100947.78;4997660;28;20038;-74
2023/01/07 10:48:40;;;;;;;2.63;0.80;;;;;;;19.30;47.00;100935.56;4999489;28;20033;-76
2023/01/07 10:51:15;;;;;;;4.15;0.70;;;;;;;19.27;46.76;100922.59;5006815;28;20069;-74
2023/01/07 10:54:06;;;;;;;2.13;0.73;;;;;;;19.30;46.80;100928.44;4999413;28;20045;-69
2023/01/07 10:56:37;;;;;;;1.60;0.80;;;;;;;19.29;46.54;100920.66;5005760;28;20064;-70
2023/01/07 10:59:03;;;;;;;4.68;0.90;;;;;;;19.31;46.69;100914.28;4997765;28;20049;-70
2023/01/07 11:01:36;;;;;;;2.65;0.80;;;;;;;19.28;46.82;100909.25;5002327;28;20245;-68
2023/01/07 11:04:02;;;;;;;2.05;0.90;;;;;;;19.29;46.80;100902.97;4997625;28;20552;-69
2023/01/07 11:06:46;;;;;;;1.83;0.80;;;;;;;19.30;46.55;100903.84;4996148;28;20918;-71
2023/01/07 11:09:16;;;;;;;1.85;0.70;;;;;;;19.27;46.31;100901.47;4990403;28;20482;-69
2023/01/07 11:11:42;;;;;;;1.40;0.70;;;;;;;19.25;46.46;100898.09;4990442;28;20084;-70
2023/01/07 11:14:18;;;;;;;1.73;0.80;;;;;;;19.24;46.30;100884.03;4989682;28;20034;-68
2023/01/07 11:16:53;;;;;;;4.10;1.52;;;;;;;19.25;46.10;100892.81;4990854;28;20041;-69
2023/01/07 11:19:18;;;;;;;5.03;1.15;;;;;;;19.18;46.09;100882.78;4995346;28;20093;-71
2023/01/07 11:21:47;;;;;;;2.75;0.80;;;;;;;19.24;46.05;100889.34;4998276;28;20433;-72
2023/01/07 11:24:33;;;;;;;1.63;0.73;;;;;;;19.25;46.18;100882.22;5001936;28;20034;-69
2023/01/07 11:27:05;;;;;;;2.25;0.80;;;;;;;19.21;46.20;100871.09;4993152;28;20034;-71
2023/01/07 11:29:37;;;;;;;2.78;0.75;;;;;;;19.16;46.49;100862.75;4994042;28;20030;-69
2023/01/07 11:32:04;;;;;;;4.45;0.88;;;;;;;19.20;46.28;100856.19;4988847;28;20057;-70
2023/01/07 11:34:39;;;;;;;4.03;0.98;;;;;;;19.19;46.44;100847.44;5002593;28;20128;-70
2023/01/07 11:37:04;;;;;;;3.20;1.00;;;;;;;19.23;46.32;100845.38;4991625;28;21023;-72